Alto Araguaia, Brazil
Current Conditions -  °F | °C
As of 1:00 PM on Monday 26 Jan 2015 (Local Time) from SBBW Reporting Station
Broken Clouds Broken Clouds  
Wind Chill: 77°   Ceiling: 9000
Heat Index: 78°   Visibility: 6mi
Dew Point: 73°   Wind: 7mph
Humidity: 89%   Direction: 80°E
Pressure: 30"   Gusts: NA
Location:  17.31°S, 53.22°W
Report Text: SBBW 261600Z 08006KT 9999 SCT015 SCT020 BKN090 25/23 Q1016
Loading
Personal Weather Stations






























Interactive Weather Map New forecast layout! Learn more

10-Day Weather Forecast

Advertisements
Track Severe Weather on mobile